sensor_id;sensor_type;location;lat;lon;timestamp;temperature;humidity
25923;DHT22;13725;51.170;4.442;2022-10-16T00:01:12;13.70;99.90
25923;DHT22;13725;51.170;4.442;2022-10-16T00:03:39;13.70;99.90
25923;DHT22;13725;51.170;4.442;2022-10-16T00:06:06;13.90;99.90
25923;DHT22;13725;51.170;4.442;2022-10-16T00:08:33;13.70;99.90
25923;DHT22;13725;51.170;4.442;2022-10-16T00:11:20;13.70;99.90
25923;DHT22;13725;51.170;4.442;2022-10-16T00:13:47;13.80;99.90
25923;DHT22;13725;51.170;4.442;2022-10-16T00:16:14;13.80;99.90
25923;DHT22;13725;51.170;4.442;2022-10-16T00:18:42;13.90;99.90
25923;DHT22;13725;51.170;4.442;2022-10-16T00:21:13;13.80;99.90
25923;DHT22;13725;51.170;4.442;2022-10-16T00:23:39;13.90;99.90
25923;DHT22;13725;51.170;4.442;2022-10-16T00:26:09;13.90;99.90
25923;DHT22;13725;51.170;4.442;2022-10-16T00:28:35;13.90;99.90
25923;DHT22;13725;51.170;4.442;2022-10-16T00:31:09;13.90;99.90
25923;DHT22;13725;51.170;4.442;2022-10-16T00:33:36;13.90;99.90
25923;DHT22;13725;51.170;4.442;2022-10-16T00:36:04;13.90;99.90
25923;DHT22;13725;51.170;4.442;2022-10-16T00:38:30;13.80;99.90
25923;DHT22;13725;51.170;4.442;2022-10-16T00:40:56;13.80;99.90
25923;DHT22;13725;51.170;4.442;2022-10-16T00:43:42;13.90;99.90
25923;DHT22;13725;51.170;4.442;2022-10-16T00:46:46;13.80;99.90
25923;DHT22;13725;51.170;4.442;2022-10-16T00:49:11;13.70;99.90
25923;DHT22;13725;51.170;4.442;2022-10-16T00:51:39;13.60;99.90
25923;DHT22;13725;51.170;4.442;2022-10-16T00:54:13;13.60;99.90
25923;DHT22;13725;51.170;4.442;2022-10-16T00:56:40;13.60;99.90
25923;DHT22;13725;51.170;4.442;2022-10-16T00:59:13;13.60;99.90
25923;DHT22;13725;51.170;4.442;2022-10-16T01:01:43;13.50;99.90
25923;DHT22;13725;51.170;4.442;2022-10-16T01:04:09;13.50;99.90
25923;DHT22;13725;51.170;4.442;2022-10-16T01:07:01;13.50;99.90
25923;DHT22;13725;51.170;4.442;2022-10-16T01:09:40;13.50;99.90
25923;DHT22;13725;51.170;4.442;2022-10-16T01:12:14;13.50;99.90
25923;DHT22;13725;51.170;4.442;2022-10-16T01:14:46;13.40;99.90
25923;DHT22;13725;51.170;4.442;2022-10-16T01:17:18;13.40;99.90
25923;DHT22;13725;51.170;4.442;2022-10-16T01:20:21;13.30;99.90
25923;DHT22;13725;51.170;4.442;2022-10-16T01:25:52;13.30;99.90
25923;DHT22;13725;51.170;4.442;2022-10-16T01:28:30;13.40;99.90
25923;DHT22;13725;51.170;4.442;2022-10-16T01:30:58;13.30;99.90
25923;DHT22;13725;51.170;4.442;2022-10-16T01:33:36;13.30;99.90
25923;DHT22;13725;51.170;4.442;2022-10-16T01:36:17;13.30;99.90
25923;DHT22;13725;51.170;4.442;2022-10-16T01:38:47;13.20;99.90
25923;DHT22;13725;51.170;4.442;2022-10-16T01:41:36;13.20;99.90
25923;DHT22;13725;51.170;4.442;2022-10-16T01:44:06;13.20;99.90
25923;DHT22;13725;51.170;4.442;2022-10-16T01:46:36;13.10;99.90
25923;DHT22;13725;51.170;4.442;2022-10-16T01:49:03;13.00;99.90
25923;DHT22;13725;51.170;4.442;2022-10-16T01:51:31;13.00;99.90
25923;DHT22;13725;51.170;4.442;2022-10-16T01:54:00;13.00;99.90
25923;DHT22;13725;51.170;4.442;2022-10-16T01:56:27;13.00;99.90
25923;DHT22;13725;51.170;4.442;2022-10-16T01:59:01;13.00;99.90
25923;DHT22;13725;51.170;4.442;2022-10-16T02:01:30;13.00;99.90
25923;DHT22;13725;51.170;4.442;2022-10-16T02:04:00;13.10;99.90
25923;DHT22;13725;51.170;4.442;2022-10-16T02:06:27;13.00;99.90
25923;DHT22;13725;51.170;4.442;2022-10-16T02:08:53;13.00;99.90
25923;DHT22;13725;51.170;4.442;2022-10-16T02:11:19;13.00;99.90
25923;DHT22;13725;51.170;4.442;2022-10-16T02:14:04;13.00;99.90
25923;DHT22;13725;51.170;4.442;2022-10-16T02:16:42;13.00;99.90
25923;DHT22;13725;51.170;4.442;2022-10-16T02:19:13;13.00;99.90
25923;DHT22;13725;51.170;4.442;2022-10-16T02:21:49;13.00;99.90
25923;DHT22;13725;51.170;4.442;2022-10-16T02:24:43;13.00;99.90
25923;DHT22;13725;51.170;4.442;2022-10-16T02:27:28;13.00;99.90
25923;DHT22;13725;51.170;4.442;2022-10-16T02:32:40;12.90;99.90
25923;DHT22;13725;51.170;4.442;2022-10-16T02:35:08;12.90;99.90
25923;DHT22;13725;51.170;4.442;2022-10-16T02:37:34;12.90;99.90
25923;DHT22;13725;51.170;4.442;2022-10-16T02:40:00;12.90;99.90
25923;DHT22;13725;51.170;4.442;2022-10-16T02:42:33;12.80;99.90
25923;DHT22;13725;51.170;4.442;2022-10-16T02:44:59;12.80;99.90
25923;DHT22;13725;51.170;4.442;2022-10-16T02:47:25;12.90;99.90
25923;DHT22;13725;51.170;4.442;2022-10-16T02:49:51;12.80;99.90
25923;DHT22;13725;51.170;4.442;2022-10-16T02:52:17;12.90;99.90
25923;DHT22;13725;51.170;4.442;2022-10-16T02:54:43;13.00;99.90
25923;DHT22;13725;51.170;4.442;2022-10-16T02:57:09;12.90;99.90
25923;DHT22;13725;51.170;4.442;2022-10-16T02:59:35;13.00;99.90
25923;DHT22;13725;51.170;4.442;2022-10-16T03:02:00;13.00;99.90
25923;DHT22;13725;51.170;4.442;2022-10-16T03:04:26;13.00;99.90
25923;DHT22;13725;51.170;4.442;2022-10-16T03:06:52;12.90;99.90
25923;DHT22;13725;51.170;4.442;2022-10-16T03:09:18;13.00;99.90
25923;DHT22;13725;51.170;4.442;2022-10-16T03:11:43;13.00;99.90
25923;DHT22;13725;51.170;4.442;2022-10-16T03:14:09;13.00;99.90
25923;DHT22;13725;51.170;4.442;2022-10-16T03:16:35;13.20;99.90
25923;DHT22;13725;51.170;4.442;2022-10-16T03:19:00;13.10;99.90
25923;DHT22;13725;51.170;4.442;2022-10-16T03:21:26;13.10;99.90
25923;DHT22;13725;51.170;4.442;2022-10-16T03:23:52;13.10;99.90
25923;DHT22;13725;51.170;4.442;2022-10-16T03:26:18;13.10;99.90
25923;DHT22;13725;51.170;4.442;2022-10-16T03:28:43;13.10;99.90
25923;DHT22;13725;51.170;4.442;2022-10-16T03:31:10;13.10;99.90
25923;DHT22;13725;51.170;4.442;2022-10-16T03:33:36;13.10;99.90
25923;DHT22;13725;51.170;4.442;2022-10-16T03:36:02;13.10;99.90
25923;DHT22;13725;51.170;4.442;2022-10-16T03:38:28;13.20;99.90
25923;DHT22;13725;51.170;4.442;2022-10-16T03:40:53;13.20;99.90
25923;DHT22;13725;51.170;4.442;2022-10-16T03:43:19;13.20;99.90
25923;DHT22;13725;51.170;4.442;2022-10-16T03:45:45;13.20;99.90
25923;DHT22;13725;51.170;4.442;2022-10-16T03:48:11;13.20;99.90
25923;DHT22;13725;51.170;4.442;2022-10-16T03:50:37;13.40;99.90
25923;DHT22;13725;51.170;4.442;2022-10-16T03:53:03;13.20;99.90
25923;DHT22;13725;51.170;4.442;2022-10-16T03:55:29;13.20;99.90
25923;DHT22;13725;51.170;4.442;2022-10-16T03:57:55;13.20;99.90
25923;DHT22;13725;51.170;4.442;2022-10-16T04:00:20;13.20;99.90
25923;DHT22;13725;51.170;4.442;2022-10-16T04:02:46;13.20;99.90
25923;DHT22;13725;51.170;4.442;2022-10-16T04:05:12;13.20;99.90
25923;DHT22;13725;51.170;4.442;2022-10-16T04:07:38;13.30;99.90
25923;DHT22;13725;51.170;4.442;2022-10-16T04:10:04;13.30;99.90
25923;DHT22;13725;51.170;4.442;2022-10-16T04:12:29;13.20;99.90
25923;DHT22;13725;51.170;4.442;2022-10-16T04:14:55;13.20;99.90
25923;DHT22;13725;51.170;4.442;2022-10-16T04:17:21;13.20;99.90
25923;DHT22;13725;51.170;4.442;2022-10-16T04:19:47;13.20;99.90
25923;DHT22;13725;51.170;4.442;2022-10-16T04:22:12;13.20;99.90
25923;DHT22;13725;51.170;4.442;2022-10-16T04:24:38;13.20;99.90
25923;DHT22;13725;51.170;4.442;2022-10-16T04:27:04;13.20;99.90
25923;DHT22;13725;51.170;4.442;2022-10-16T04:29:30;13.20;99.90
25923;DHT22;13725;51.170;4.442;2022-10-16T04:31:55;13.20;99.90
25923;DHT22;13725;51.170;4.442;2022-10-16T04:34:21;13.20;99.90
25923;DHT22;13725;51.170;4.442;2022-10-16T04:36:48;13.10;99.90
25923;DHT22;13725;51.170;4.442;2022-10-16T04:39:16;13.10;99.90
25923;DHT22;13725;51.170;4.442;2022-10-16T04:41:42;13.10;99.90
25923;DHT22;13725;51.170;4.442;2022-10-16T04:44:08;13.10;99.90
25923;DHT22;13725;51.170;4.442;2022-10-16T04:46:34;13.00;99.90
25923;DHT22;13725;51.170;4.442;2022-10-16T04:48:59;13.00;99.90
25923;DHT22;13725;51.170;4.442;2022-10-16T04:51:25;13.00;99.90
25923;DHT22;13725;51.170;4.442;2022-10-16T04:53:53;13.00;99.90
25923;DHT22;13725;51.170;4.442;2022-10-16T04:56:20;12.80;99.90
25923;DHT22;13725;51.170;4.442;2022-10-16T04:58:46;12.90;99.90
25923;DHT22;13725;51.170;4.442;2022-10-16T05:01:12;12.80;99.90
25923;DHT22;13725;51.170;4.442;2022-10-16T05:03:38;12.90;99.90
25923;DHT22;13725;51.170;4.442;2022-10-16T05:06:06;12.80;99.90
25923;DHT22;13725;51.170;4.442;2022-10-16T05:08:32;12.80;99.90
25923;DHT22;13725;51.170;4.442;2022-10-16T05:10:57;12.90;99.90
25923;DHT22;13725;51.170;4.442;2022-10-16T05:13:23;12.70;99.90
25923;DHT22;13725;51.170;4.442;2022-10-16T05:15:49;12.80;99.90
25923;DHT22;13725;51.170;4.442;2022-10-16T05:18:15;12.80;99.90
25923;DHT22;13725;51.170;4.442;2022-10-16T05:20:42;12.80;99.90
25923;DHT22;13725;51.170;4.442;2022-10-16T05:23:08;12.70;99.90
25923;DHT22;13725;51.170;4.442;2022-10-16T05:25:36;12.70;99.90
25923;DHT22;13725;51.170;4.442;2022-10-16T05:28:02;12.70;99.90
25923;DHT22;13725;51.170;4.442;2022-10-16T05:30:27;12.60;99.90
25923;DHT22;13725;51.170;4.442;2022-10-16T05:32:53;12.60;99.90
25923;DHT22;13725;51.170;4.442;2022-10-16T05:35:19;12.60;99.90
25923;DHT22;13725;51.170;4.442;2022-10-16T05:37:45;12.60;99.90
25923;DHT22;13725;51.170;4.442;2022-10-16T05:40:12;12.60;99.90
25923;DHT22;13725;51.170;4.442;2022-10-16T05:42:38;12.50;99.90
25923;DHT22;13725;51.170;4.442;2022-10-16T05:45:09;12.50;99.90
25923;DHT22;13725;51.170;4.442;2022-10-16T05:47:35;12.50;99.90
25923;DHT22;13725;51.170;4.442;2022-10-16T05:50:01;12.60;99.90
25923;DHT22;13725;51.170;4.442;2022-10-16T05:52:27;12.60;99.90
25923;DHT22;13725;51.170;4.442;2022-10-16T05:54:52;12.50;99.90
25923;DHT22;13725;51.170;4.442;2022-10-16T05:57:18;12.50;99.90
25923;DHT22;13725;51.170;4.442;2022-10-16T05:59:44;12.50;99.90
25923;DHT22;13725;51.170;4.442;2022-10-16T06:02:13;12.50;99.90
25923;DHT22;13725;51.170;4.442;2022-10-16T06:04:39;12.50;99.90
25923;DHT22;13725;51.170;4.442;2022-10-16T06:07:05;12.50;99.90
25923;DHT22;13725;51.170;4.442;2022-10-16T06:09:31;12.60;99.90
25923;DHT22;13725;51.170;4.442;2022-10-16T06:11:56;12.70;99.90
25923;DHT22;13725;51.170;4.442;2022-10-16T06:14:22;12.70;99.90
25923;DHT22;13725;51.170;4.442;2022-10-16T06:16:48;12.80;99.90
25923;DHT22;13725;51.170;4.442;2022-10-16T06:19:14;12.80;99.90
25923;DHT22;13725;51.170;4.442;2022-10-16T06:21:41;12.90;99.90
25923;DHT22;13725;51.170;4.442;2022-10-16T06:24:08;13.00;99.90
25923;DHT22;13725;51.170;4.442;2022-10-16T06:26:33;13.20;99.90
25923;DHT22;13725;51.170;4.442;2022-10-16T06:29:00;13.10;99.90
25923;DHT22;13725;51.170;4.442;2022-10-16T06:31:27;13.20;99.90
25923;DHT22;13725;51.170;4.442;2022-10-16T06:33:56;13.20;99.90
25923;DHT22;13725;51.170;4.442;2022-10-16T06:36:23;13.20;99.90
25923;DHT22;13725;51.170;4.442;2022-10-16T06:38:49;13.20;99.90
25923;DHT22;13725;51.170;4.442;2022-10-16T06:41:17;13.20;99.90
25923;DHT22;13725;51.170;4.442;2022-10-16T06:43:43;13.20;99.90
25923;DHT22;13725;51.170;4.442;2022-10-16T06:46:11;13.30;99.90
25923;DHT22;13725;51.170;4.442;2022-10-16T06:48:38;13.20;99.90
25923;DHT22;13725;51.170;4.442;2022-10-16T06:51:13;13.20;99.90
25923;DHT22;13725;51.170;4.442;2022-10-16T06:53:45;13.10;99.90
25923;DHT22;13725;51.170;4.442;2022-10-16T06:56:13;13.10;99.90
25923;DHT22;13725;51.170;4.442;2022-10-16T06:58:40;13.20;99.90
25923;DHT22;13725;51.170;4.442;2022-10-16T07:01:06;13.20;99.90
25923;DHT22;13725;51.170;4.442;2022-10-16T07:03:36;13.30;99.90
25923;DHT22;13725;51.170;4.442;2022-10-16T07:06:03;13.20;99.90
25923;DHT22;13725;51.170;4.442;2022-10-16T07:08:37;13.30;99.90
25923;DHT22;13725;51.170;4.442;2022-10-16T07:11:06;13.40;99.90
25923;DHT22;13725;51.170;4.442;2022-10-16T07:13:37;13.50;99.90
25923;DHT22;13725;51.170;4.442;2022-10-16T07:16:09;13.50;99.90
25923;DHT22;13725;51.170;4.442;2022-10-16T07:18:36;13.60;99.90
25923;DHT22;13725;51.170;4.442;2022-10-16T07:21:06;13.70;99.90
25923;DHT22;13725;51.170;4.442;2022-10-16T07:23:32;13.80;99.90
25923;DHT22;13725;51.170;4.442;2022-10-16T07:25:58;13.90;99.90
25923;DHT22;13725;51.170;4.442;2022-10-16T07:28:24;13.90;99.90
25923;DHT22;13725;51.170;4.442;2022-10-16T07:30:49;13.90;99.90
25923;DHT22;13725;51.170;4.442;2022-10-16T07:33:15;14.00;99.90
25923;DHT22;13725;51.170;4.442;2022-10-16T07:35:51;14.10;99.90
25923;DHT22;13725;51.170;4.442;2022-10-16T07:38:17;14.50;99.90
25923;DHT22;13725;51.170;4.442;2022-10-16T07:40:44;14.60;99.90
25923;DHT22;13725;51.170;4.442;2022-10-16T07:43:09;14.60;99.90
25923;DHT22;13725;51.170;4.442;2022-10-16T07:45:35;14.60;99.90
25923;DHT22;13725;51.170;4.442;2022-10-16T07:48:01;14.60;99.90
25923;DHT22;13725;51.170;4.442;2022-10-16T07:50:26;14.60;99.90
25923;DHT22;13725;51.170;4.442;2022-10-16T07:52:52;14.70;99.90
25923;DHT22;13725;51.170;4.442;2022-10-16T07:55:18;14.80;99.90
25923;DHT22;13725;51.170;4.442;2022-10-16T07:57:43;15.00;99.90
25923;DHT22;13725;51.170;4.442;2022-10-16T08:00:10;15.40;99.90
25923;DHT22;13725;51.170;4.442;2022-10-16T08:02:40;17.20;99.90
25923;DHT22;13725;51.170;4.442;2022-10-16T08:05:06;19.80;99.90
25923;DHT22;13725;51.170;4.442;2022-10-16T08:07:32;22.30;99.90
25923;DHT22;13725;51.170;4.442;2022-10-16T08:09:58;24.50;99.90
25923;DHT22;13725;51.170;4.442;2022-10-16T08:12:25;26.00;99.90
25923;DHT22;13725;51.170;4.442;2022-10-16T08:14:51;27.40;99.90
25923;DHT22;13725;51.170;4.442;2022-10-16T08:17:16;28.50;99.90
25923;DHT22;13725;51.170;4.442;2022-10-16T08:19:46;29.30;99.90
25923;DHT22;13725;51.170;4.442;2022-10-16T08:22:13;30.20;99.90
25923;DHT22;13725;51.170;4.442;2022-10-16T08:24:39;30.40;99.90
25923;DHT22;13725;51.170;4.442;2022-10-16T08:27:05;30.70;99.90
25923;DHT22;13725;51.170;4.442;2022-10-16T08:29:31;31.10;99.90
25923;DHT22;13725;51.170;4.442;2022-10-16T08:31:57;31.90;99.00
25923;DHT22;13725;51.170;4.442;2022-10-16T08:34:22;32.40;96.40
25923;DHT22;13725;51.170;4.442;2022-10-16T08:36:48;33.00;94.30
25923;DHT22;13725;51.170;4.442;2022-10-16T08:39:15;33.20;93.00
25923;DHT22;13725;51.170;4.442;2022-10-16T08:47:18;34.20;88.80
25923;DHT22;13725;51.170;4.442;2022-10-16T08:50:08;34.40;86.90
25923;DHT22;13725;51.170;4.442;2022-10-16T08:52:39;34.30;85.20
25923;DHT22;13725;51.170;4.442;2022-10-16T08:55:06;34.70;83.50
25923;DHT22;13725;51.170;4.442;2022-10-16T08:57:32;35.20;82.30
25923;DHT22;13725;51.170;4.442;2022-10-16T09:00:05;35.70;80.50
25923;DHT22;13725;51.170;4.442;2022-10-16T09:02:49;36.30;79.40
25923;DHT22;13725;51.170;4.442;2022-10-16T09:08:14;36.40;76.10
25923;DHT22;13725;51.170;4.442;2022-10-16T09:11:08;36.60;75.30
25923;DHT22;13725;51.170;4.442;2022-10-16T09:13:38;37.00;74.50
25923;DHT22;13725;51.170;4.442;2022-10-16T09:16:34;37.30;73.40
25923;DHT22;13725;51.170;4.442;2022-10-16T09:19:17;37.20;72.20
25923;DHT22;13725;51.170;4.442;2022-10-16T09:21:46;37.60;71.30
25923;DHT22;13725;51.170;4.442;2022-10-16T09:24:15;37.60;70.30
25923;DHT22;13725;51.170;4.442;2022-10-16T09:26:42;37.90;70.00
25923;DHT22;13725;51.170;4.442;2022-10-16T09:29:13;37.90;69.00
25923;DHT22;13725;51.170;4.442;2022-10-16T09:31:39;38.20;68.80
25923;DHT22;13725;51.170;4.442;2022-10-16T09:34:08;38.60;68.60
25923;DHT22;13725;51.170;4.442;2022-10-16T09:36:42;38.40;67.80
25923;DHT22;13725;51.170;4.442;2022-10-16T09:39:11;38.70;67.10
25923;DHT22;13725;51.170;4.442;2022-10-16T09:41:42;38.60;65.70
25923;DHT22;13725;51.170;4.442;2022-10-16T09:44:29;38.80;65.90
25923;DHT22;13725;51.170;4.442;2022-10-16T09:47:12;38.40;65.50
25923;DHT22;13725;51.170;4.442;2022-10-16T09:49:54;38.90;65.60
25923;DHT22;13725;51.170;4.442;2022-10-16T09:52:21;39.60;64.70
25923;DHT22;13725;51.170;4.442;2022-10-16T09:54:55;39.70;64.40
25923;DHT22;13725;51.170;4.442;2022-10-16T09:57:22;40.00;63.10
25923;DHT22;13725;51.170;4.442;2022-10-16T09:59:50;40.30;62.70
25923;DHT22;13725;51.170;4.442;2022-10-16T10:02:28;40.10;61.90
25923;DHT22;13725;51.170;4.442;2022-10-16T10:04:55;40.30;61.40
25923;DHT22;13725;51.170;4.442;2022-10-16T10:07:31;40.60;61.80
25923;DHT22;13725;51.170;4.442;2022-10-16T10:10:03;41.00;61.20
25923;DHT22;13725;51.170;4.442;2022-10-16T10:12:31;40.60;60.10
25923;DHT22;13725;51.170;4.442;2022-10-16T10:15:09;40.60;60.40
25923;DHT22;13725;51.170;4.442;2022-10-16T10:17:46;40.80;60.60
25923;DHT22;13725;51.170;4.442;2022-10-16T10:20:31;40.80;60.10
25923;DHT22;13725;51.170;4.442;2022-10-16T10:23:01;41.20;59.30
25923;DHT22;13725;51.170;4.442;2022-10-16T10:25:44;41.10;58.40
25923;DHT22;13725;51.170;4.442;2022-10-16T10:33:45;39.10;60.90
25923;DHT22;13725;51.170;4.442;2022-10-16T10:39:04;37.20;63.10
25923;DHT22;13725;51.170;4.442;2022-10-16T10:50:43;32.70;69.10
25923;DHT22;13725;51.170;4.442;2022-10-16T10:53:25;30.80;71.40
25923;DHT22;13725;51.170;4.442;2022-10-16T11:04:23;29.70;78.10
25923;DHT22;13725;51.170;4.442;2022-10-16T11:06:59;31.50;75.20
25923;DHT22;13725;51.170;4.442;2022-10-16T11:09:34;33.40;70.60
25923;DHT22;13725;51.170;4.442;2022-10-16T11:12:14;35.10;67.90
25923;DHT22;13725;51.170;4.442;2022-10-16T11:14:50;36.20;65.20
25923;DHT22;13725;51.170;4.442;2022-10-16T11:17:23;36.30;64.60
25923;DHT22;13725;51.170;4.442;2022-10-16T11:19:56;37.00;63.90
25923;DHT22;13725;51.170;4.442;2022-10-16T11:22:36;37.60;61.60
25923;DHT22;13725;51.170;4.442;2022-10-16T11:25:18;38.20;61.40
25923;DHT22;13725;51.170;4.442;2022-10-16T11:28:32;38.50;60.60
25923;DHT22;13725;51.170;4.442;2022-10-16T11:34:04;39.60;59.50
25923;DHT22;13725;51.170;4.442;2022-10-16T11:36:45;40.00;58.90
25923;DHT22;13725;51.170;4.442;2022-10-16T11:39:29;40.20;58.80
25923;DHT22;13725;51.170;4.442;2022-10-16T11:42:22;40.40;58.10
25923;DHT22;13725;51.170;4.442;2022-10-16T11:45:23;40.70;57.80
25923;DHT22;13725;51.170;4.442;2022-10-16T11:50:50;40.20;57.00
25923;DHT22;13725;51.170;4.442;2022-10-16T11:53:27;40.20;57.80
25923;DHT22;13725;51.170;4.442;2022-10-16T11:55:57;39.50;57.30
25923;DHT22;13725;51.170;4.442;2022-10-16T12:04:38;37.20;61.30
25923;DHT22;13725;51.170;4.442;2022-10-16T12:07:14;36.90;60.00
25923;DHT22;13725;51.170;4.442;2022-10-16T12:09:42;36.30;60.00
25923;DHT22;13725;51.170;4.442;2022-10-16T12:12:36;36.50;60.70
25923;DHT22;13725;51.170;4.442;2022-10-16T12:17:38;35.60;60.80
25923;DHT22;13725;51.170;4.442;2022-10-16T12:27:54;35.60;61.20
25923;DHT22;13725;51.170;4.442;2022-10-16T12:30:24;36.00;60.30
25923;DHT22;13725;51.170;4.442;2022-10-16T12:33:24;34.80;61.60
25923;DHT22;13725;51.170;4.442;2022-10-16T12:35:51;34.10;62.10
25923;DHT22;13725;51.170;4.442;2022-10-16T12:38:17;33.70;64.70
25923;DHT22;13725;51.170;4.442;2022-10-16T12:40:45;32.90;64.60
25923;DHT22;13725;51.170;4.442;2022-10-16T12:48:30;30.90;69.50
25923;DHT22;13725;51.170;4.442;2022-10-16T12:50:56;31.30;68.10
25923;DHT22;13725;51.170;4.442;2022-10-16T12:53:25;31.20;68.50
25923;DHT22;13725;51.170;4.442;2022-10-16T12:56:19;30.80;69.50
25923;DHT22;13725;51.170;4.442;2022-10-16T13:01:57;32.20;69.50
25923;DHT22;13725;51.170;4.442;2022-10-16T13:07:19;32.70;67.20
25923;DHT22;13725;51.170;4.442;2022-10-16T13:12:56;31.30;66.90
25923;DHT22;13725;51.170;4.442;2022-10-16T13:21:35;29.00;73.30
25923;DHT22;13725;51.170;4.442;2022-10-16T13:26:48;28.30;74.60
25923;DHT22;13725;51.170;4.442;2022-10-16T13:29:15;28.00;75.80
25923;DHT22;13725;51.170;4.442;2022-10-16T13:31:42;27.70;78.00
25923;DHT22;13725;51.170;4.442;2022-10-16T13:34:16;27.10;77.70
25923;DHT22;13725;51.170;4.442;2022-10-16T13:36:49;26.30;81.20
25923;DHT22;13725;51.170;4.442;2022-10-16T13:39:24;25.80;83.40
25923;DHT22;13725;51.170;4.442;2022-10-16T13:42:04;25.80;85.40
25923;DHT22;13725;51.170;4.442;2022-10-16T13:44:42;25.80;86.50
25923;DHT22;13725;51.170;4.442;2022-10-16T13:47:35;25.50;84.00
25923;DHT22;13725;51.170;4.442;2022-10-16T13:50:11;25.50;86.60
25923;DHT22;13725;51.170;4.442;2022-10-16T13:52:38;25.20;85.70
25923;DHT22;13725;51.170;4.442;2022-10-16T13:55:15;25.00;88.50
25923;DHT22;13725;51.170;4.442;2022-10-16T13:57:41;24.80;88.80
25923;DHT22;13725;51.170;4.442;2022-10-16T14:00:36;24.60;90.20
25923;DHT22;13725;51.170;4.442;2022-10-16T14:03:11;24.50;90.80
25923;DHT22;13725;51.170;4.442;2022-10-16T14:05:47;24.20;90.80
25923;DHT22;13725;51.170;4.442;2022-10-16T14:08:13;24.00;91.20
25923;DHT22;13725;51.170;4.442;2022-10-16T14:10:39;23.80;92.30
25923;DHT22;13725;51.170;4.442;2022-10-16T14:13:07;23.70;94.10
25923;DHT22;13725;51.170;4.442;2022-10-16T14:15:35;23.50;93.40
25923;DHT22;13725;51.170;4.442;2022-10-16T14:18:02;23.20;93.90
25923;DHT22;13725;51.170;4.442;2022-10-16T14:20:33;22.90;95.60
25923;DHT22;13725;51.170;4.442;2022-10-16T14:23:04;22.70;96.30
25923;DHT22;13725;51.170;4.442;2022-10-16T14:25:42;22.50;97.10
25923;DHT22;13725;51.170;4.442;2022-10-16T14:28:21;22.30;98.40
25923;DHT22;13725;51.170;4.442;2022-10-16T14:30:59;22.30;99.10
25923;DHT22;13725;51.170;4.442;2022-10-16T14:36:14;22.40;99.90
25923;DHT22;13725;51.170;4.442;2022-10-16T14:38:43;22.10;99.90
25923;DHT22;13725;51.170;4.442;2022-10-16T14:41:13;22.00;99.90
25923;DHT22;13725;51.170;4.442;2022-10-16T14:43:42;21.90;99.90
25923;DHT22;13725;51.170;4.442;2022-10-16T14:46:14;21.70;99.90
25923;DHT22;13725;51.170;4.442;2022-10-16T14:48:46;21.40;99.90
25923;DHT22;13725;51.170;4.442;2022-10-16T14:51:20;21.20;99.90
25923;DHT22;13725;51.170;4.442;2022-10-16T14:53:46;21.20;99.90
25923;DHT22;13725;51.170;4.442;2022-10-16T14:56:20;20.90;99.90
25923;DHT22;13725;51.170;4.442;2022-10-16T14:58:47;20.70;99.90
25923;DHT22;13725;51.170;4.442;2022-10-16T15:01:13;20.80;99.90
25923;DHT22;13725;51.170;4.442;2022-10-16T15:03:39;20.70;99.90
25923;DHT22;13725;51.170;4.442;2022-10-16T15:06:10;20.60;99.90
25923;DHT22;13725;51.170;4.442;2022-10-16T15:08:36;20.60;99.90
25923;DHT22;13725;51.170;4.442;2022-10-16T15:11:02;20.50;99.90
25923;DHT22;13725;51.170;4.442;2022-10-16T15:13:27;20.60;99.90
25923;DHT22;13725;51.170;4.442;2022-10-16T15:15:53;20.60;99.90
25923;DHT22;13725;51.170;4.442;2022-10-16T15:18:19;20.70;99.90
25923;DHT22;13725;51.170;4.442;2022-10-16T15:20:48;20.70;99.90
25923;DHT22;13725;51.170;4.442;2022-10-16T15:23:17;20.60;99.90
25923;DHT22;13725;51.170;4.442;2022-10-16T15:25:53;20.70;99.90
25923;DHT22;13725;51.170;4.442;2022-10-16T15:28:20;20.50;99.90
25923;DHT22;13725;51.170;4.442;2022-10-16T15:30:48;20.60;99.90
25923;DHT22;13725;51.170;4.442;2022-10-16T15:33:17;20.50;99.90
25923;DHT22;13725;51.170;4.442;2022-10-16T15:35:47;20.60;99.90
25923;DHT22;13725;51.170;4.442;2022-10-16T15:38:14;20.50;99.90
25923;DHT22;13725;51.170;4.442;2022-10-16T15:40:40;20.50;99.90
25923;DHT22;13725;51.170;4.442;2022-10-16T15:43:07;20.50;99.90
25923;DHT22;13725;51.170;4.442;2022-10-16T15:45:33;20.50;99.90
25923;DHT22;13725;51.170;4.442;2022-10-16T15:47:59;20.40;99.90
25923;DHT22;13725;51.170;4.442;2022-10-16T15:50:24;20.40;99.90
25923;DHT22;13725;51.170;4.442;2022-10-16T15:52:51;20.40;99.90
25923;DHT22;13725;51.170;4.442;2022-10-16T15:55:17;20.30;99.90
25923;DHT22;13725;51.170;4.442;2022-10-16T15:57:45;20.30;99.90
25923;DHT22;13725;51.170;4.442;2022-10-16T16:00:17;20.20;99.90
25923;DHT22;13725;51.170;4.442;2022-10-16T16:02:45;20.20;99.90
25923;DHT22;13725;51.170;4.442;2022-10-16T16:05:14;20.10;99.90
25923;DHT22;13725;51.170;4.442;2022-10-16T16:07:40;20.10;99.90
25923;DHT22;13725;51.170;4.442;2022-10-16T16:10:08;20.10;99.90
25923;DHT22;13725;51.170;4.442;2022-10-16T16:12:35;20.10;99.90
25923;DHT22;13725;51.170;4.442;2022-10-16T16:15:01;20.10;99.90
25923;DHT22;13725;51.170;4.442;2022-10-16T16:17:26;20.10;99.90
25923;DHT22;13725;51.170;4.442;2022-10-16T16:19:52;20.10;99.90
25923;DHT22;13725;51.170;4.442;2022-10-16T16:22:20;20.00;99.90
25923;DHT22;13725;51.170;4.442;2022-10-16T16:24:46;19.90;99.90
25923;DHT22;13725;51.170;4.442;2022-10-16T16:27:11;19.90;99.90
25923;DHT22;13725;51.170;4.442;2022-10-16T16:29:39;19.80;99.90
25923;DHT22;13725;51.170;4.442;2022-10-16T16:32:05;19.80;99.90
25923;DHT22;13725;51.170;4.442;2022-10-16T16:34:31;19.70;99.90
25923;DHT22;13725;51.170;4.442;2022-10-16T16:36:56;19.60;99.90
25923;DHT22;13725;51.170;4.442;2022-10-16T16:39:23;19.50;99.90
25923;DHT22;13725;51.170;4.442;2022-10-16T16:41:49;19.50;99.90
25923;DHT22;13725;51.170;4.442;2022-10-16T16:44:15;19.50;99.90
25923;DHT22;13725;51.170;4.442;2022-10-16T16:46:43;19.40;99.90
25923;DHT22;13725;51.170;4.442;2022-10-16T16:49:11;19.40;99.90
25923;DHT22;13725;51.170;4.442;2022-10-16T16:51:37;19.20;99.90
25923;DHT22;13725;51.170;4.442;2022-10-16T16:54:03;19.10;99.90
25923;DHT22;13725;51.170;4.442;2022-10-16T16:56:29;19.10;99.90
25923;DHT22;13725;51.170;4.442;2022-10-16T16:58:56;19.20;99.90
25923;DHT22;13725;51.170;4.442;2022-10-16T17:01:24;19.10;99.90
25923;DHT22;13725;51.170;4.442;2022-10-16T17:03:52;19.10;99.90
25923;DHT22;13725;51.170;4.442;2022-10-16T17:06:24;19.10;99.90
25923;DHT22;13725;51.170;4.442;2022-10-16T17:08:51;19.10;99.90
25923;DHT22;13725;51.170;4.442;2022-10-16T17:11:22;19.10;99.90
25923;DHT22;13725;51.170;4.442;2022-10-16T17:13:50;19.10;99.90
25923;DHT22;13725;51.170;4.442;2022-10-16T17:16:16;19.10;99.90